Time;durP1;ratioP1;P1;durP2;ratioP2;P2;SDS_P1;SDS_P2;PMS_P1;PMS_P2;Temp;Humidity;BMP_temperature;BMP_pressure;BME280_temperature;BME280_humidity;BME280_pressure;Samples;Min_cycle;Max_cycle;Signal;HPM_P1;HPM_P2
2022/10/22 00:00:41;;;;;;;3.30;1.77;;;15.60;99.90;;;;;;5089320;28;20540;-76
2022/10/22 00:03:27;;;;;;;3.70;1.77;;;15.60;99.90;;;;;;5092137;28;20507;-75
2022/10/22 00:06:12;;;;;;;5.33;2.03;;;15.60;99.90;;;;;;5090666;28;20815;-76
2022/10/22 00:08:58;;;;;;;3.00;1.83;;;15.60;99.90;;;;;;5094184;28;20404;-76
2022/10/22 00:11:44;;;;;;;8.33;2.20;;;15.60;99.90;;;;;;5079291;28;20927;-76
2022/10/22 00:14:31;;;;;;;3.50;1.80;;;15.60;99.90;;;;;;5091371;28;20503;-75
2022/10/22 00:17:17;;;;;;;5.43;1.93;;;15.60;99.90;;;;;;5092157;28;20970;-76
2022/10/22 00:20:04;;;;;;;7.80;1.80;;;15.70;99.90;;;;;;5093920;28;20424;-76
2022/10/22 00:22:49;;;;;;;6.97;2.33;;;15.70;99.90;;;;;;5084766;28;20755;-76
2022/10/22 00:25:36;;;;;;;3.50;1.70;;;15.60;99.90;;;;;;5090254;28;21007;-76
2022/10/22 00:28:22;;;;;;;3.50;1.63;;;15.50;99.90;;;;;;5090024;28;20818;-76
2022/10/22 00:31:08;;;;;;;6.77;1.80;;;15.40;99.90;;;;;;5089038;28;20515;-76
2022/10/22 00:33:54;;;;;;;3.83;1.57;;;15.50;99.90;;;;;;5091459;28;20401;-76
2022/10/22 00:36:40;;;;;;;5.40;1.43;;;15.50;99.90;;;;;;5094137;28;20401;-75
2022/10/22 00:39:27;;;;;;;8.33;2.20;;;15.50;99.90;;;;;;5091825;28;20901;-75
2022/10/22 00:42:17;;;;;;;4.90;1.77;;;15.60;99.90;;;;;;5086706;28;21045;-75
2022/10/22 00:45:21;;;;;;;3.00;1.57;;;15.60;99.90;;;;;;5090275;28;20508;-76
2022/10/22 00:48:10;;;;;;;2.37;1.30;;;15.70;99.90;;;;;;5093536;28;20493;-75
2022/10/22 00:50:59;;;;;;;5.63;1.80;;;15.70;99.90;;;;;;5086293;28;20470;-76
2022/10/22 00:53:48;;;;;;;3.33;1.67;;;15.70;99.90;;;;;;5090645;28;20431;-75
2022/10/22 00:56:34;;;;;;;5.00;1.70;;;15.80;99.90;;;;;;5091210;28;20763;-76
2022/10/22 00:59:19;;;;;;;2.60;1.10;;;15.80;99.90;;;;;;5088104;28;20396;-75
2022/10/22 01:02:05;;;;;;;3.83;1.20;;;15.80;99.90;;;;;;5087581;28;20524;-76
2022/10/22 01:04:52;;;;;;;7.90;2.07;;;15.90;99.90;;;;;;5087315;28;20428;-75
2022/10/22 01:07:41;;;;;;;3.80;1.53;;;15.80;99.90;;;;;;5082015;28;20483;-76
2022/10/22 01:10:38;;;;;;;5.47;1.70;;;15.80;99.90;;;;;;5088517;28;20474;-76
2022/10/22 01:13:35;;;;;;;2.37;0.93;;;15.70;99.90;;;;;;5087571;28;20466;-76
2022/10/22 01:16:31;;;;;;;5.23;1.17;;;15.70;99.90;;;;;;5091339;28;20432;-76
2022/10/22 01:19:42;;;;;;;4.80;1.47;;;15.70;99.90;;;;;;5085134;28;20440;-76
2022/10/22 01:22:34;;;;;;;4.73;1.87;;;15.60;99.90;;;;;;5088509;28;20449;-76
2022/10/22 01:25:31;;;;;;;4.77;2.10;;;15.60;99.90;;;;;;5085815;28;20441;-75
2022/10/22 01:28:26;;;;;;;1.97;1.40;;;15.60;99.90;;;;;;5086077;28;20941;-76
2022/10/22 01:31:15;;;;;;;2.13;1.10;;;15.50;99.90;;;;;;5082134;28;20497;-76
2022/10/22 01:34:02;;;;;;;3.90;1.20;;;15.50;99.90;;;;;;5088405;28;20409;-76
2022/10/22 01:36:49;;;;;;;2.63;1.03;;;15.50;99.90;;;;;;5090547;28;20393;-76
2022/10/22 01:39:38;;;;;;;7.60;1.30;;;15.50;99.90;;;;;;5087873;28;20441;-76
2022/10/22 01:42:24;;;;;;;4.27;1.13;;;15.40;99.90;;;;;;5089734;28;20482;-76
2022/10/22 01:45:14;;;;;;;1.60;0.90;;;15.50;99.90;;;;;;5086097;28;20524;-75
2022/10/22 01:48:12;;;;;;;2.80;1.00;;;15.50;99.90;;;;;;5089269;28;20400;-76
2022/10/22 01:51:28;;;;;;;1.73;1.10;;;15.50;99.90;;;;;;5083817;28;20461;-76
2022/10/22 01:54:27;;;;;;;3.00;1.33;;;15.50;99.90;;;;;;5082498;28;20398;-75
2022/10/22 01:57:22;;;;;;;1.80;1.10;;;15.40;99.90;;;;;;5075069;28;20445;-75
2022/10/22 02:00:12;;;;;;;6.90;1.70;;;15.50;99.90;;;;;;5075715;28;20973;-76
2022/10/22 02:03:05;;;;;;;4.70;1.60;;;15.50;99.90;;;;;;5074268;28;20479;-75
2022/10/22 02:05:55;;;;;;;7.43;2.37;;;15.40;99.90;;;;;;5085763;28;20442;-75
2022/10/22 02:08:42;;;;;;;2.33;1.07;;;15.40;99.90;;;;;;5085410;28;20417;-75
2022/10/22 02:11:28;;;;;;;2.60;1.40;;;15.40;99.90;;;;;;5076938;28;20441;-75
2022/10/22 02:14:17;;;;;;;7.97;1.30;;;15.40;99.90;;;;;;5099992;28;20444;-76
2022/10/22 02:17:04;;;;;;;2.40;1.00;;;15.30;99.90;;;;;;5085972;28;20519;-76
2022/10/22 02:19:56;;;;;;;2.50;1.00;;;15.30;99.90;;;;;;5086049;28;20836;-75
2022/10/22 02:22:42;;;;;;;2.27;1.20;;;15.30;99.90;;;;;;5082013;28;20509;-74
2022/10/22 02:25:31;;;;;;;2.40;1.30;;;15.30;99.90;;;;;;5084728;28;20956;-76
2022/10/22 02:28:23;;;;;;;3.83;1.00;;;15.30;99.90;;;;;;5082523;28;20413;-75
2022/10/22 02:31:15;;;;;;;2.80;1.20;;;15.20;99.90;;;;;;5080430;28;20477;-75
2022/10/22 02:34:07;;;;;;;4.73;1.13;;;15.30;99.90;;;;;;5079655;28;20431;-75
2022/10/22 02:36:55;;;;;;;4.67;1.30;;;15.20;99.90;;;;;;5073434;28;20445;-75
2022/10/22 02:39:42;;;;;;;4.20;1.33;;;15.10;99.90;;;;;;5081356;28;20467;-76
2022/10/22 02:42:29;;;;;;;4.80;1.50;;;15.20;99.90;;;;;;5078609;28;20619;-76
2022/10/22 02:45:16;;;;;;;5.40;1.40;;;15.20;99.90;;;;;;5087035;28;20405;-76
2022/10/22 02:48:02;;;;;;;2.37;1.00;;;15.20;99.90;;;;;;5098686;28;20421;-76
2022/10/22 02:50:48;;;;;;;8.50;1.67;;;15.20;99.90;;;;;;5082813;28;20473;-75
2022/10/22 02:53:35;;;;;;;3.10;1.20;;;15.20;99.90;;;;;;5082620;28;20950;-76
2022/10/22 02:56:21;;;;;;;3.40;0.97;;;15.30;99.90;;;;;;5078803;28;20393;-75
2022/10/22 02:59:06;;;;;;;8.83;1.70;;;15.30;99.90;;;;;;5079041;28;20416;-76
2022/10/22 03:01:52;;;;;;;8.20;1.20;;;15.20;99.90;;;;;;5088695;28;20438;-76
2022/10/22 03:04:37;;;;;;;1.70;1.10;;;15.10;99.90;;;;;;5090162;28;21019;-76
2022/10/22 03:07:23;;;;;;;5.53;1.10;;;15.10;99.90;;;;;;5077041;28;20466;-76
2022/10/22 03:10:10;;;;;;;5.63;0.90;;;15.10;99.90;;;;;;5072946;28;20515;-75
2022/10/22 03:12:56;;;;;;;3.57;1.20;;;15.10;99.90;;;;;;5084671;28;20473;-77
2022/10/22 03:15:42;;;;;;;2.90;1.13;;;15.10;99.90;;;;;;5092381;28;20426;-76
2022/10/22 03:18:28;;;;;;;9.33;1.70;;;15.10;99.90;;;;;;5087600;28;20423;-75
2022/10/22 03:21:21;;;;;;;11.63;1.87;;;14.90;99.90;;;;;;5086144;28;20983;-76
2022/10/22 03:24:11;;;;;;;7.60;1.67;;;14.90;99.90;;;;;;5085226;28;20960;-76
2022/10/22 03:26:58;;;;;;;4.83;1.33;;;14.90;99.90;;;;;;5084201;28;20920;-76
2022/10/22 03:29:45;;;;;;;4.80;1.47;;;14.90;99.90;;;;;;5081902;28;20510;-76
2022/10/22 03:32:31;;;;;;;7.60;1.33;;;14.90;99.90;;;;;;5090957;28;20976;-76
2022/10/22 03:35:16;;;;;;;13.00;1.97;;;14.90;99.90;;;;;;5084586;28;20441;-75
2022/10/22 03:38:02;;;;;;;3.40;1.20;;;14.90;99.90;;;;;;5092068;28;20800;-76
2022/10/22 03:40:48;;;;;;;8.17;1.33;;;14.80;99.90;;;;;;5089620;28;20432;-75
2022/10/22 03:43:37;;;;;;;13.57;1.50;;;14.70;99.90;;;;;;5090294;28;20576;-76
2022/10/22 03:46:23;;;;;;;3.30;1.10;;;14.80;99.90;;;;;;5087006;28;20416;-76
2022/10/22 03:49:08;;;;;;;5.10;1.40;;;14.80;99.90;;;;;;5086806;28;20424;-76
2022/10/22 03:51:54;;;;;;;4.03;1.20;;;14.70;99.90;;;;;;5092091;28;20920;-76
2022/10/22 03:54:41;;;;;;;12.10;2.17;;;14.80;99.90;;;;;;5088831;28;20396;-75
2022/10/22 03:57:27;;;;;;;3.57;1.40;;;14.60;99.90;;;;;;5082863;28;20416;-76
2022/10/22 04:00:14;;;;;;;3.80;1.00;;;14.40;99.90;;;;;;5085950;28;20461;-76
2022/10/22 04:03:00;;;;;;;12.57;1.53;;;14.40;99.90;;;;;;5085543;28;20804;-76
2022/10/22 04:05:45;;;;;;;6.77;1.27;;;14.40;99.90;;;;;;5088071;28;20427;-76
2022/10/22 04:08:31;;;;;;;2.63;1.10;;;14.50;99.90;;;;;;5090383;28;20527;-76
2022/10/22 04:11:17;;;;;;;5.70;1.80;;;14.60;99.90;;;;;;5084738;28;20476;-76
2022/10/22 04:14:03;;;;;;;5.20;1.60;;;14.50;99.90;;;;;;5088758;28;20482;-76
2022/10/22 04:16:50;;;;;;;8.30;1.50;;;14.50;99.90;;;;;;5085261;28;20441;-76
2022/10/22 04:19:35;;;;;;;3.00;0.90;;;14.50;99.90;;;;;;5084414;28;20447;-76
2022/10/22 04:22:21;;;;;;;3.47;1.30;;;14.50;99.90;;;;;;5090247;28;20424;-76
2022/10/22 04:25:07;;;;;;;3.37;0.83;;;14.50;99.90;;;;;;5083211;28;20451;-76
2022/10/22 04:27:53;;;;;;;2.43;0.90;;;14.50;99.90;;;;;;5085267;28;20396;-76
2022/10/22 04:30:39;;;;;;;11.70;1.70;;;14.30;99.90;;;;;;5085234;28;20483;-75
2022/10/22 04:33:26;;;;;;;6.87;1.30;;;14.20;99.90;;;;;;5089980;28;20948;-76
2022/10/22 04:36:13;;;;;;;22.57;1.70;;;14.10;99.90;;;;;;5086358;28;20450;-76
2022/10/22 04:39:01;;;;;;;17.73;1.50;;;14.10;99.90;;;;;;5090616;28;20455;-75
2022/10/22 04:41:46;;;;;;;2.97;1.10;;;14.00;99.90;;;;;;5089765;28;20439;-75
2022/10/22 04:44:32;;;;;;;4.20;1.50;;;13.90;99.90;;;;;;5088913;28;20564;-75
2022/10/22 04:47:18;;;;;;;5.17;1.20;;;13.90;99.90;;;;;;5092585;28;20487;-76
2022/10/22 04:50:06;;;;;;;2.30;0.90;;;14.00;99.90;;;;;;5089899;28;20442;-76
2022/10/22 04:52:51;;;;;;;10.10;1.07;;;13.90;99.90;;;;;;5091015;28;20469;-76
2022/10/22 04:55:37;;;;;;;7.30;1.33;;;13.80;99.90;;;;;;5086310;28;21024;-76
2022/10/22 04:58:22;;;;;;;5.50;1.10;;;13.80;99.90;;;;;;5083110;28;20598;-76
2022/10/22 05:01:13;;;;;;;6.10;1.10;;;13.80;99.90;;;;;;5092322;28;20469;-76
2022/10/22 05:04:00;;;;;;;3.03;1.07;;;13.80;99.90;;;;;;5086037;28;20566;-76
2022/10/22 05:06:47;;;;;;;10.13;1.20;;;13.80;99.90;;;;;;5087431;28;20439;-75
2022/10/22 05:09:33;;;;;;;3.60;0.97;;;13.80;99.90;;;;;;5089208;28;20487;-76
2022/10/22 05:12:18;;;;;;;4.60;1.03;;;13.80;99.90;;;;;;5087152;28;20409;-76
2022/10/22 05:15:04;;;;;;;5.13;1.00;;;13.90;99.90;;;;;;5085861;28;20398;-76
2022/10/22 05:17:50;;;;;;;3.50;0.80;;;13.90;99.90;;;;;;5088985;28;20471;-76
2022/10/22 05:20:39;;;;;;;4.17;1.20;;;13.90;99.90;;;;;;5089409;28;20423;-76
2022/10/22 05:23:27;;;;;;;2.40;1.23;;;13.90;99.90;;;;;;5093174;28;20404;-76
2022/10/22 05:26:13;;;;;;;2.20;0.90;;;14.00;99.90;;;;;;5082770;28;20424;-75
2022/10/22 05:28:59;;;;;;;4.30;1.00;;;14.10;99.90;;;;;;5086158;28;20433;-76
2022/10/22 05:31:45;;;;;;;2.13;0.90;;;14.20;99.90;;;;;;5089482;28;20798;-76
2022/10/22 05:34:32;;;;;;;1.80;0.80;;;14.20;99.90;;;;;;5087398;28;20525;-76
2022/10/22 05:37:17;;;;;;;4.53;0.77;;;14.10;99.90;;;;;;5089454;28;20973;-75
2022/10/22 05:40:06;;;;;;;2.43;1.00;;;14.20;99.90;;;;;;5085829;28;20507;-76
2022/10/22 05:42:51;;;;;;;1.93;1.07;;;14.20;99.90;;;;;;5091003;28;20537;-76
2022/10/22 05:45:37;;;;;;;3.63;1.07;;;14.30;99.90;;;;;;5091309;28;20525;-76
2022/10/22 05:48:22;;;;;;;3.20;0.80;;;14.40;99.90;;;;;;5079827;28;20923;-76
2022/10/22 05:51:10;;;;;;;3.33;0.80;;;14.40;99.90;;;;;;5085499;28;20953;-76
2022/10/22 05:53:58;;;;;;;1.50;0.70;;;14.40;99.90;;;;;;5083450;28;20555;-76
2022/10/22 05:56:45;;;;;;;1.50;0.90;;;14.50;99.90;;;;;;5086560;28;20466;-76
2022/10/22 05:59:31;;;;;;;6.10;2.13;;;14.40;99.90;;;;;;5087523;28;20389;-76
2022/10/22 06:02:16;;;;;;;5.03;3.20;;;14.50;99.90;;;;;;5082577;28;20439;-76
2022/10/22 06:05:02;;;;;;;11.20;1.33;;;14.50;99.90;;;;;;5079510;28;20439;-76
2022/10/22 06:07:48;;;;;;;6.70;5.70;;;14.50;99.90;;;;;;5087356;28;20931;-75
2022/10/22 06:10:33;;;;;;;13.20;8.27;;;14.40;99.90;;;;;;5089925;28;20441;-76
2022/10/22 06:13:21;;;;;;;6.80;6.10;;;14.40;99.90;;;;;;5087129;28;20444;-76
2022/10/22 06:16:07;;;;;;;7.87;4.83;;;14.40;99.90;;;;;;5087552;28;20439;-76
2022/10/22 06:18:53;;;;;;;14.30;5.90;;;14.50;99.90;;;;;;5086166;28;20950;-76
2022/10/22 06:21:39;;;;;;;11.40;6.97;;;14.50;99.90;;;;;;5084470;28;20616;-76
2022/10/22 06:24:24;;;;;;;20.50;6.70;;;14.40;99.90;;;;;;5080893;28;20446;-76
2022/10/22 06:27:10;;;;;;;17.80;8.13;;;14.40;99.90;;;;;;5084318;28;20808;-76
2022/10/22 06:29:57;;;;;;;49.10;19.67;;;14.30;99.90;;;;;;5083255;28;20813;-76
2022/10/22 06:32:42;;;;;;;48.43;18.20;;;14.30;99.90;;;;;;5086317;28;20421;-76
2022/10/22 06:35:28;;;;;;;36.17;16.30;;;14.20;99.90;;;;;;5089832;28;20808;-76
2022/10/22 06:38:13;;;;;;;61.97;24.83;;;14.20;99.90;;;;;;5079074;28;20429;-76
2022/10/22 06:41:03;;;;;;;23.73;10.63;;;14.20;99.90;;;;;;5087971;28;20470;-76
2022/10/22 06:43:48;;;;;;;18.13;7.80;;;14.20;99.90;;;;;;5086121;28;20416;-76
2022/10/22 06:46:35;;;;;;;9.43;3.43;;;14.30;99.90;;;;;;5081495;28;20484;-75
2022/10/22 06:49:21;;;;;;;4.53;1.40;;;14.30;99.90;;;;;;5086592;28;20412;-76
2022/10/22 06:52:07;;;;;;;2.23;0.90;;;14.30;99.90;;;;;;5085593;28;21020;-76
2022/10/22 06:54:52;;;;;;;9.80;1.50;;;14.40;99.90;;;;;;5083010;28;20469;-76
2022/10/22 06:57:38;;;;;;;1.60;1.00;;;14.40;99.90;;;;;;5083206;28;20438;-76
2022/10/22 07:00:24;;;;;;;10.67;3.90;;;14.50;99.90;;;;;;5082705;28;20477;-76
2022/10/22 07:03:13;;;;;;;14.47;4.60;;;14.50;99.90;;;;;;5087221;28;20469;-76
2022/10/22 07:06:00;;;;;;;8.30;4.60;;;14.50;99.90;;;;;;5084921;28;20451;-76
2022/10/22 07:08:46;;;;;;;9.33;3.50;;;14.50;99.90;;;;;;5087883;28;20440;-76
2022/10/22 07:11:40;;;;;;;12.20;4.10;;;14.50;99.90;;;;;;5088943;28;21203;-76
2022/10/22 07:14:25;;;;;;;6.30;5.00;;;14.50;99.90;;;;;;5087133;28;20551;-76
2022/10/22 07:17:11;;;;;;;11.23;4.40;;;14.50;99.90;;;;;;5082174;28;20812;-76
2022/10/22 07:19:58;;;;;;;4.50;1.40;;;14.60;99.90;;;;;;5082992;28;20448;-76
2022/10/22 07:22:44;;;;;;;5.00;1.43;;;14.70;99.90;;;;;;5084729;28;20471;-76
2022/10/22 07:25:29;;;;;;;2.03;0.90;;;14.70;99.90;;;;;;5080663;28;20446;-76
2022/10/22 07:28:15;;;;;;;2.10;0.93;;;14.80;99.90;;;;;;5083684;28;20914;-76
2022/10/22 07:31:01;;;;;;;3.07;1.00;;;14.80;99.90;;;;;;5086262;28;20966;-76
2022/10/22 07:33:47;;;;;;;1.87;1.07;;;14.80;99.90;;;;;;5083617;28;20818;-76
2022/10/22 07:36:34;;;;;;;5.13;0.70;;;14.90;99.90;;;;;;5085713;28;20480;-76
2022/10/22 07:39:19;;;;;;;3.60;0.87;;;15.00;99.90;;;;;;5086999;28;20564;-76
2022/10/22 07:42:06;;;;;;;2.30;1.20;;;15.10;99.90;;;;;;5083329;28;20462;-76
2022/10/22 07:44:51;;;;;;;6.63;1.37;;;15.10;99.90;;;;;;5084454;28;20442;-76
2022/10/22 07:47:37;;;;;;;2.07;0.80;;;15.10;99.90;;;;;;5083650;28;20411;-76
2022/10/22 07:50:22;;;;;;;2.63;1.33;;;15.20;99.90;;;;;;5089537;28;21010;-75
2022/10/22 07:53:09;;;;;;;2.87;0.70;;;15.20;99.90;;;;;;5079982;28;21111;-76
2022/10/22 07:55:55;;;;;;;4.10;0.90;;;15.10;99.90;;;;;;5083011;28;20404;-76
2022/10/22 07:58:41;;;;;;;5.23;2.00;;;15.20;99.90;;;;;;5082268;28;20453;-75
2022/10/22 08:01:26;;;;;;;3.33;1.00;;;15.20;99.90;;;;;;5085851;28;20475;-76
2022/10/22 08:04:12;;;;;;;1.83;0.80;;;15.30;99.90;;;;;;5086701;28;20408;-76
2022/10/22 08:06:58;;;;;;;2.33;0.80;;;15.30;99.90;;;;;;5082408;28;20442;-76
2022/10/22 08:09:45;;;;;;;4.43;0.80;;;15.30;99.90;;;;;;5088605;28;20442;-76
2022/10/22 08:12:30;;;;;;;6.10;1.00;;;15.40;99.90;;;;;;5088736;28;20492;-75
2022/10/22 08:15:16;;;;;;;2.87;1.23;;;15.40;99.90;;;;;;5089563;28;20527;-76
2022/10/22 08:18:02;;;;;;;6.70;1.13;;;15.40;99.90;;;;;;5085989;28;20445;-76
2022/10/22 08:20:47;;;;;;;2.63;0.70;;;15.40;99.90;;;;;;5089506;28;20445;-76
2022/10/22 08:23:33;;;;;;;1.33;0.53;;;15.40;99.90;;;;;;5090223;28;20793;-76
2022/10/22 08:26:20;;;;;;;1.93;0.70;;;15.60;99.90;;;;;;5086668;28;20450;-76
2022/10/22 08:29:06;;;;;;;4.23;1.27;;;15.60;99.90;;;;;;5091000;28;20456;-76
2022/10/22 08:31:52;;;;;;;1.77;0.70;;;15.70;99.90;;;;;;5087384;28;20607;-76
2022/10/22 08:34:38;;;;;;;4.07;0.80;;;15.80;99.90;;;;;;5086333;28;20465;-75
2022/10/22 08:37:24;;;;;;;9.03;0.63;;;15.80;99.90;;;;;;5084203;28;20441;-75
2022/10/22 08:40:18;;;;;;;2.43;0.87;;;15.90;99.90;;;;;;5087375;28;20990;-76
2022/10/22 08:43:34;;;;;;;2.40;0.70;;;15.90;99.90;;;;;;5086701;28;20453;-76
2022/10/22 08:46:43;;;;;;;2.07;0.73;;;16.00;99.90;;;;;;5083988;28;20541;-76
2022/10/22 08:49:33;;;;;;;1.37;0.57;;;16.10;99.90;;;;;;5090298;28;20396;-76
2022/10/22 08:52:20;;;;;;;2.30;0.70;;;16.20;99.90;;;;;;5089614;28;20421;-76
2022/10/22 08:55:14;;;;;;;1.50;0.70;;;16.30;99.90;;;;;;5088564;28;20615;-76
2022/10/22 08:58:05;;;;;;;2.23;1.10;;;16.40;99.90;;;;;;5087346;28;20445;-76
2022/10/22 09:00:59;;;;;;;2.90;1.27;;;16.50;99.90;;;;;;5080370;28;20508;-76
2022/10/22 09:03:50;;;;;;;7.40;0.70;;;16.50;99.90;;;;;;5080814;28;20439;-76
2022/10/22 09:06:38;;;;;;;7.97;0.83;;;16.60;99.90;;;;;;5087322;28;20458;-76
2022/10/22 09:09:28;;;;;;;2.60;0.80;;;16.60;99.90;;;;;;5088182;28;20877;-76
2022/10/22 09:12:15;;;;;;;1.50;0.77;;;16.70;99.90;;;;;;5085203;28;20559;-76
2022/10/22 09:15:01;;;;;;;4.43;0.90;;;16.70;99.90;;;;;;5085573;28;20431;-75
2022/10/22 09:18:00;;;;;;;1.83;0.80;;;16.80;99.90;;;;;;5085407;28;20919;-76
2022/10/22 09:20:53;;;;;;;2.67;0.90;;;16.90;99.90;;;;;;5082814;28;20603;-76
2022/10/22 09:23:55;;;;;;;2.73;0.90;;;16.90;99.90;;;;;;5085343;28;20529;-76
2022/10/22 09:26:41;;;;;;;4.67;1.40;;;17.10;99.90;;;;;;5083784;28;20503;-76
2022/10/22 09:29:33;;;;;;;2.37;1.03;;;17.10;99.90;;;;;;5086408;28;20496;-76
2022/10/22 09:32:19;;;;;;;1.60;0.83;;;17.30;99.90;;;;;;5080821;28;20490;-74
2022/10/22 09:35:11;;;;;;;2.00;0.87;;;17.30;99.90;;;;;;5085084;28;20457;-74
2022/10/22 09:37:57;;;;;;;1.50;0.73;;;17.40;99.90;;;;;;5082630;28;20523;-75
2022/10/22 09:40:44;;;;;;;2.50;0.80;;;17.60;99.90;;;;;;5088055;28;20440;-75
2022/10/22 09:43:30;;;;;;;5.90;1.17;;;17.60;99.90;;;;;;5088178;28;20461;-75
2022/10/22 09:46:18;;;;;;;3.90;0.70;;;17.70;99.90;;;;;;5076660;28;20467;-75
2022/10/22 09:49:09;;;;;;;1.80;0.70;;;17.80;99.90;;;;;;5088651;28;20499;-75
2022/10/22 09:51:57;;;;;;;2.47;0.80;;;18.00;99.90;;;;;;5084660;28;20503;-75
2022/10/22 09:54:43;;;;;;;1.30;0.70;;;18.10;99.90;;;;;;5081601;28;20567;-74
2022/10/22 09:57:30;;;;;;;2.17;0.80;;;18.30;99.90;;;;;;5086117;28;20416;-75
2022/10/22 10:00:19;;;;;;;1.93;0.90;;;18.50;99.90;;;;;;5080873;28;20440;-75
2022/10/22 10:03:05;;;;;;;3.70;1.00;;;18.50;99.90;;;;;;5086612;28;20846;-74
2022/10/22 10:05:54;;;;;;;2.40;0.73;;;18.60;99.90;;;;;;5086459;28;20497;-74
2022/10/22 10:08:41;;;;;;;2.63;1.67;;;18.80;99.90;;;;;;5085771;28;20803;-74
2022/10/22 10:11:33;;;;;;;13.73;5.93;;;19.00;99.90;;;;;;5087384;28;21107;-75
2022/10/22 10:14:28;;;;;;;7.03;3.90;;;19.10;99.90;;;;;;5089801;28;20465;-74
2022/10/22 10:17:23;;;;;;;5.90;2.70;;;19.10;99.90;;;;;;5080004;28;20469;-74
2022/10/22 10:20:24;;;;;;;2.40;1.00;;;19.40;99.90;;;;;;5087965;28;20441;-74
2022/10/22 10:23:18;;;;;;;4.10;1.60;;;19.50;99.90;;;;;;5083014;28;20437;-74
2022/10/22 10:26:12;;;;;;;3.40;1.33;;;19.40;99.90;;;;;;5080646;28;20420;-74
2022/10/22 10:29:14;;;;;;;2.20;0.90;;;19.30;99.90;;;;;;5083657;28;20820;-74
2022/10/22 10:32:16;;;;;;;1.90;0.90;;;19.20;99.90;;;;;;5085069;28;20594;-74
2022/10/22 10:35:12;;;;;;;2.63;0.90;;;19.20;99.90;;;;;;5083198;28;20439;-74
2022/10/22 10:38:18;;;;;;;2.37;0.93;;;19.30;99.90;;;;;;5083212;28;20834;-74
2022/10/22 10:41:18;;;;;;;2.23;1.23;;;19.40;99.90;;;;;;5081625;28;20497;-74
2022/10/22 10:44:25;;;;;;;7.93;1.83;;;19.60;99.90;;;;;;5079615;28;20452;-76
2022/10/22 10:47:28;;;;;;;4.27;1.10;;;19.60;99.90;;;;;;5082620;28;20464;-76
2022/10/22 10:50:23;;;;;;;5.10;1.20;;;19.70;99.90;;;;;;5083439;28;20504;-76
2022/10/22 10:53:17;;;;;;;6.67;1.30;;;19.50;99.90;;;;;;5086384;28;20837;-76
2022/10/22 10:56:14;;;;;;;2.53;0.83;;;19.50;99.90;;;;;;5086665;28;20796;-75
2022/10/22 10:59:09;;;;;;;2.90;1.00;;;19.40;99.90;;;;;;5088370;28;20473;-76
2022/10/22 11:02:10;;;;;;;2.60;1.10;;;19.40;99.90;;;;;;5087351;28;20892;-76
2022/10/22 11:05:12;;;;;;;7.60;1.27;;;19.60;99.90;;;;;;5084512;28;20500;-76
2022/10/22 11:08:03;;;;;;;2.23;0.93;;;19.80;99.90;;;;;;5086774;28;20444;-74
2022/10/22 11:10:52;;;;;;;2.90;1.20;;;19.80;99.90;;;;;;5080009;28;20493;-75
2022/10/22 11:13:44;;;;;;;12.30;1.97;;;19.80;99.90;;;;;;5080224;28;20433;-76
2022/10/22 11:16:35;;;;;;;6.40;1.53;;;19.80;99.90;;;;;;5084661;28;21107;-76
2022/10/22 11:19:27;;;;;;;3.33;1.07;;;19.70;99.90;;;;;;5090936;28;20944;-76
2022/10/22 11:22:17;;;;;;;3.97;1.17;;;19.60;99.90;;;;;;5082923;28;20426;-76
2022/10/22 11:25:14;;;;;;;2.87;1.13;;;19.60;99.90;;;;;;5083647;28;20463;-76
2022/10/22 11:28:03;;;;;;;5.03;1.30;;;19.40;99.90;;;;;;5085807;28;20488;-75
2022/10/22 11:30:56;;;;;;;5.63;1.10;;;19.40;99.90;;;;;;5085852;28;20465;-75
2022/10/22 11:33:51;;;;;;;4.50;1.20;;;19.40;99.90;;;;;;5089131;28;20524;-75
2022/10/22 11:36:38;;;;;;;5.10;1.10;;;19.20;99.90;;;;;;5084967;28;20929;-76
2022/10/22 11:39:31;;;;;;;4.60;1.10;;;19.20;99.90;;;;;;5088157;28;20552;-75
2022/10/22 11:42:20;;;;;;;2.53;1.30;;;19.10;99.90;;;;;;5089361;28;20410;-75
2022/10/22 11:45:27;;;;;;;6.87;1.20;;;19.00;99.90;;;;;;5084705;28;21040;-75
2022/10/22 11:48:19;;;;;;;3.63;1.10;;;18.90;99.90;;;;;;5088430;28;20408;-76
2022/10/22 11:51:35;;;;;;;3.07;1.50;;;19.00;99.90;;;;;;5092880;28;20437;-75
2022/10/22 11:54:41;;;;;;;5.70;0.87;;;19.10;99.90;;;;;;5089022;28;20966;-75
2022/10/22 11:57:35;;;;;;;2.97;1.20;;;19.30;99.90;;;;;;5093669;28;20412;-75
2022/10/22 12:00:39;;;;;;;4.40;1.70;;;19.40;99.90;;;;;;5090379;28;20453;-77
2022/10/22 12:03:40;;;;;;;4.40;1.53;;;19.50;99.90;;;;;;5086312;28;20495;-77
2022/10/22 12:06:26;;;;;;;6.30;1.13;;;19.70;99.90;;;;;;5090681;28;20524;-77
2022/10/22 12:09:12;;;;;;;6.43;1.40;;;19.70;99.90;;;;;;5091685;28;20780;-77
2022/10/22 12:12:14;;;;;;;4.80;1.00;;;19.70;99.90;;;;;;5093619;28;20445;-77
2022/10/22 12:15:01;;;;;;;6.10;1.17;;;19.70;99.90;;;;;;5085523;28;20468;-77
2022/10/22 12:17:47;;;;;;;2.30;1.37;;;19.50;99.90;;;;;;5089362;28;20433;-75
2022/10/22 12:20:34;;;;;;;4.90;1.20;;;19.40;99.90;;;;;;5093220;28;20445;-77
2022/10/22 12:23:25;;;;;;;5.20;1.60;;;19.20;99.90;;;;;;5089113;28;20427;-77
2022/10/22 12:26:23;;;;;;;3.57;1.33;;;19.20;99.90;;;;;;5088858;28;20419;-77
2022/10/22 12:29:12;;;;;;;3.40;1.30;;;19.20;99.90;;;;;;5086874;28;20400;-77
2022/10/22 12:32:02;;;;;;;3.80;1.30;;;19.20;99.90;;;;;;5081335;28;20616;-79
2022/10/22 12:34:48;;;;;;;3.73;1.30;;;19.20;99.90;;;;;;5079793;28;20539;-77
2022/10/22 12:37:37;;;;;;;3.17;1.17;;;19.30;99.90;;;;;;5081879;28;20523;-78
2022/10/22 12:40:24;;;;;;;5.33;0.97;;;19.30;99.90;;;;;;5088263;28;20474;-77
2022/10/22 12:43:13;;;;;;;2.20;0.93;;;19.20;99.90;;;;;;5087218;28;20421;-77
2022/10/22 12:45:59;;;;;;;5.53;1.20;;;19.20;99.90;;;;;;5087340;28;21057;-77
2022/10/22 12:48:46;;;;;;;3.97;1.50;;;19.10;99.90;;;;;;5087420;28;20434;-76
2022/10/22 12:51:32;;;;;;;3.63;1.03;;;19.00;99.90;;;;;;5086832;28;20440;-76
2022/10/22 12:54:27;;;;;;;2.93;1.10;;;19.10;99.90;;;;;;5081552;28;20497;-77
2022/10/22 12:57:15;;;;;;;5.20;1.30;;;19.20;99.90;;;;;;5080156;28;20445;-77
2022/10/22 13:00:01;;;;;;;4.73;0.90;;;19.20;99.90;;;;;;5075298;28;20465;-76
2022/10/22 13:02:47;;;;;;;5.53;1.30;;;19.20;99.90;;;;;;5083409;28;20692;-77
2022/10/22 13:05:37;;;;;;;10.17;1.20;;;19.20;99.90;;;;;;5088207;28;20439;-77
2022/10/22 13:08:27;;;;;;;3.47;1.20;;;19.20;99.90;;;;;;5084191;28;20441;-77
2022/10/22 13:11:20;;;;;;;5.03;3.00;;;19.20;99.90;;;;;;5087329;28;20465;-76
2022/10/22 13:14:18;;;;;;;9.30;1.67;;;19.20;99.90;;;;;;5080771;28;20989;-76
2022/10/22 13:17:10;;;;;;;4.90;1.57;;;19.30;99.90;;;;;;5089888;28;20447;-78
2022/10/22 13:20:04;;;;;;;4.00;1.50;;;19.10;99.90;;;;;;5090452;28;20412;-76
2022/10/22 13:22:59;;;;;;;6.83;1.87;;;19.10;99.90;;;;;;5079926;28;20518;-77
2022/10/22 13:25:58;;;;;;;1.80;1.00;;;19.20;99.90;;;;;;5084461;28;20842;-77
2022/10/22 13:28:51;;;;;;;7.30;1.13;;;19.30;99.90;;;;;;5086353;28;20492;-77
2022/10/22 13:31:37;;;;;;;14.03;2.60;;;19.20;99.90;;;;;;5085130;28;20616;-76
2022/10/22 13:34:25;;;;;;;4.03;0.93;;;19.40;99.90;;;;;;5085807;28;20461;-77
2022/10/22 13:37:10;;;;;;;4.20;1.07;;;19.40;99.90;;;;;;5077384;28;20476;-76
2022/10/22 13:39:56;;;;;;;5.30;1.40;;;19.50;99.90;;;;;;5078239;28;20540;-77
2022/10/22 13:42:42;;;;;;;2.33;1.10;;;19.40;99.90;;;;;;5081351;28;20593;-77
2022/10/22 13:45:29;;;;;;;3.43;1.13;;;19.30;99.90;;;;;;5084023;28;20490;-77
2022/10/22 13:48:17;;;;;;;4.53;1.77;;;19.20;99.90;;;;;;5084224;28;20421;-77
2022/10/22 13:51:05;;;;;;;4.10;1.40;;;19.00;99.90;;;;;;5083662;28;20538;-77
2022/10/22 13:53:52;;;;;;;10.37;1.60;;;18.80;99.90;;;;;;5081112;28;20524;-77
2022/10/22 13:56:38;;;;;;;9.77;1.90;;;18.70;99.90;;;;;;5089095;28;20487;-75
2022/10/22 13:59:24;;;;;;;9.67;1.77;;;18.60;99.90;;;;;;5080703;28;20466;-77
2022/10/22 14:02:12;;;;;;;18.00;2.03;;;18.50;99.90;;;;;;5083301;28;20611;-77
2022/10/22 14:05:01;;;;;;;7.27;1.47;;;18.40;99.90;;;;;;5087895;28;20424;-76
2022/10/22 14:07:47;;;;;;;11.83;1.80;;;18.30;99.90;;;;;;5089566;28;20428;-76
2022/10/22 14:10:33;;;;;;;10.63;1.50;;;18.30;99.90;;;;;;5083238;28;20459;-78
2022/10/22 14:13:20;;;;;;;7.80;1.23;;;18.30;99.90;;;;;;5076484;28;20959;-77
2022/10/22 14:16:08;;;;;;;5.33;1.40;;;18.30;99.90;;;;;;5085847;28;20518;-77
2022/10/22 14:18:56;;;;;;;8.70;1.87;;;18.30;99.90;;;;;;5079912;28;20461;-77
2022/10/22 14:21:42;;;;;;;17.93;1.73;;;18.30;99.90;;;;;;5084550;28;20864;-77
2022/10/22 14:24:27;;;;;;;11.17;1.67;;;18.40;99.90;;;;;;5086656;28;20473;-77
2022/10/22 14:27:15;;;;;;;6.80;1.90;;;18.30;99.90;;;;;;5080625;28;20442;-77
2022/10/22 14:30:01;;;;;;;12.37;1.43;;;18.30;99.90;;;;;;5080211;28;21029;-77
2022/10/22 14:32:47;;;;;;;8.17;1.80;;;18.30;99.90;;;;;;5077377;28;20516;-77
2022/10/22 14:35:34;;;;;;;4.43;1.30;;;18.30;99.90;;;;;;5082973;28;20975;-77
2022/10/22 14:38:20;;;;;;;11.63;1.20;;;18.20;99.90;;;;;;5084827;28;21087;-76